Time;durP1;ratioP1;P1;durP2;ratioP2;P2;SDS_P1;SDS_P2;PMS_P1;PMS_P2;Temp;Humidity;BMP_temperature;BMP_pressure;BME280_temperature;BME280_humidity;BME280_pressure;Samples;Min_cycle;Max_cycle;Signal;HPM_P1;HPM_P2
2021/03/08 00:02:15;;;;;;;28.83;25.87;;;-0.70;99.90;;;;;;4878238;29;20460;-70
2021/03/08 00:04:41;;;;;;;30.20;26.23;;;-0.70;99.90;;;;;;4878678;29;20520;-70
2021/03/08 00:07:07;;;;;;;31.13;27.50;;;-0.60;99.90;;;;;;4878071;29;20463;-70
2021/03/08 00:09:33;;;;;;;31.80;26.23;;;-0.50;99.90;;;;;;4878067;29;20464;-71
2021/03/08 00:11:59;;;;;;;33.27;27.57;;;-0.50;99.90;;;;;;4878249;29;20456;-71
2021/03/08 00:14:26;;;;;;;34.13;25.87;;;-0.50;99.90;;;;;;4877825;29;20460;-71
2021/03/08 00:16:52;;;;;;;28.63;24.47;;;-0.60;99.90;;;;;;4878202;29;20921;-71
2021/03/08 00:19:19;;;;;;;29.53;26.43;;;-0.60;99.90;;;;;;4878090;29;20467;-71
2021/03/08 00:21:46;;;;;;;27.57;24.70;;;-0.60;99.90;;;;;;4878183;29;20464;-71
2021/03/08 00:24:12;;;;;;;31.37;26.33;;;-0.50;99.90;;;;;;4878188;29;20484;-71
2021/03/08 00:26:39;;;;;;;26.30;23.50;;;-0.60;99.90;;;;;;4878130;29;20825;-72
2021/03/08 00:29:05;;;;;;;30.47;25.07;;;-0.50;99.90;;;;;;4878265;29;20615;-72
2021/03/08 00:31:31;;;;;;;29.60;24.50;;;-0.60;99.90;;;;;;4877927;29;20462;-71
2021/03/08 00:33:57;;;;;;;32.50;27.60;;;-0.60;99.90;;;;;;4878092;29;20452;-72
2021/03/08 00:36:24;;;;;;;30.23;25.00;;;-0.70;99.90;;;;;;4877791;29;20476;-72
2021/03/08 00:38:51;;;;;;;28.43;25.23;;;-0.70;99.90;;;;;;4877740;29;20460;-72
2021/03/08 00:41:17;;;;;;;30.63;27.33;;;-0.60;99.90;;;;;;4877502;29;20488;-72
2021/03/08 00:43:43;;;;;;;29.67;25.83;;;-0.70;99.90;;;;;;4877911;29;20452;-72
2021/03/08 00:46:09;;;;;;;30.00;26.90;;;-0.70;99.90;;;;;;4877825;29;20834;-72
2021/03/08 00:48:35;;;;;;;33.60;27.97;;;-0.70;99.90;;;;;;4877712;29;20464;-72
2021/03/08 00:51:01;;;;;;;31.27;28.07;;;-0.80;99.90;;;;;;4877698;29;20473;-72
2021/03/08 00:53:28;;;;;;;29.00;25.00;;;-0.90;99.90;;;;;;4877839;29;20462;-72
2021/03/08 00:55:54;;;;;;;29.27;26.13;;;-1.00;99.90;;;;;;4877631;29;20464;-72
2021/03/08 00:58:21;;;;;;;32.10;27.67;;;-1.00;99.90;;;;;;4877705;29;20934;-71
2021/03/08 01:00:47;;;;;;;29.33;26.07;;;-1.10;99.90;;;;;;4877684;29;20452;-71
2021/03/08 01:03:13;;;;;;;32.13;26.23;;;-1.00;99.90;;;;;;4877398;29;20463;-71
2021/03/08 01:05:39;;;;;;;31.23;26.27;;;-1.00;99.90;;;;;;4877406;29;20539;-71
2021/03/08 01:08:06;;;;;;;35.93;28.70;;;-1.00;99.90;;;;;;4877070;29;20471;-72
2021/03/08 01:10:33;;;;;;;32.67;27.00;;;-1.00;99.90;;;;;;4877126;29;20452;-70
2021/03/08 01:13:00;;;;;;;31.77;27.30;;;-1.00;99.90;;;;;;4877344;29;20452;-71
2021/03/08 01:15:26;;;;;;;28.77;25.70;;;-1.00;99.90;;;;;;4877371;29;20451;-71
2021/03/08 01:17:52;;;;;;;29.57;26.50;;;-1.00;99.90;;;;;;4876813;29;20819;-71
2021/03/08 01:20:20;;;;;;;31.80;28.40;;;-1.00;99.90;;;;;;4876935;29;20906;-71
2021/03/08 01:22:47;;;;;;;33.97;27.27;;;-1.20;99.90;;;;;;4876948;29;20966;-72
2021/03/08 01:25:17;;;;;;;34.43;27.30;;;-1.20;99.90;;;;;;4877280;29;20491;-71
2021/03/08 01:27:44;;;;;;;28.87;25.77;;;-1.20;99.90;;;;;;4881144;29;20459;-71
2021/03/08 01:30:13;;;;;;;38.30;29.47;;;-1.20;99.90;;;;;;4880600;29;20914;-73
2021/03/08 01:32:39;;;;;;;33.87;27.80;;;-1.20;99.90;;;;;;4880539;29;20575;-72
2021/03/08 01:35:07;;;;;;;32.07;27.77;;;-1.30;99.90;;;;;;4880539;29;20458;-73
2021/03/08 01:37:33;;;;;;;36.23;30.30;;;-1.30;99.90;;;;;;4880301;29;20925;-73
2021/03/08 01:40:00;;;;;;;32.87;27.60;;;-1.30;99.90;;;;;;4880367;29;20506;-73
2021/03/08 01:42:26;;;;;;;34.43;28.57;;;-1.20;99.90;;;;;;4880933;29;20463;-72
2021/03/08 01:44:53;;;;;;;32.03;27.47;;;-1.30;99.90;;;;;;4880282;29;20546;-72
2021/03/08 01:47:19;;;;;;;31.03;27.80;;;-1.10;99.90;;;;;;4879955;29;20515;-72
2021/03/08 01:49:46;;;;;;;30.13;26.63;;;-1.00;99.90;;;;;;4880314;29;20465;-72
2021/03/08 01:52:12;;;;;;;41.10;28.40;;;-1.00;99.90;;;;;;4880241;29;20826;-73
2021/03/08 01:54:38;;;;;;;33.40;26.73;;;-0.90;99.90;;;;;;4880036;29;20514;-72
2021/03/08 01:57:06;;;;;;;32.43;27.07;;;-0.90;99.90;;;;;;4879896;29;20464;-72
2021/03/08 01:59:33;;;;;;;32.40;28.00;;;-1.00;99.90;;;;;;4880056;29;20512;-72
2021/03/08 02:02:01;;;;;;;29.50;26.40;;;-1.00;99.90;;;;;;4879607;29;20944;-72
2021/03/08 02:04:27;;;;;;;32.47;28.27;;;-1.00;99.90;;;;;;4880118;29;20492;-72
2021/03/08 02:06:54;;;;;;;31.73;26.37;;;-1.10;99.90;;;;;;4879839;29;20565;-71
2021/03/08 02:09:20;;;;;;;31.00;27.67;;;-1.10;99.90;;;;;;4879602;29;20471;-72
2021/03/08 02:11:53;;;;;;;31.43;27.83;;;-1.20;99.90;;;;;;4879703;29;20462;-71
2021/03/08 02:14:32;;;;;;;31.27;27.97;;;-1.30;99.90;;;;;;4879804;29;20530;-72
2021/03/08 02:17:06;;;;;;;35.97;29.83;;;-1.30;99.90;;;;;;4879699;29;20464;-72
2021/03/08 02:20:03;;;;;;;31.40;25.47;;;-1.30;99.90;;;;;;4879738;29;20447;-72
2021/03/08 02:23:04;;;;;;;32.27;26.43;;;-1.20;99.90;;;;;;4879679;29;20508;-71
2021/03/08 02:25:42;;;;;;;32.33;28.07;;;-1.10;99.90;;;;;;4879304;29;20493;-72
2021/03/08 02:28:29;;;;;;;29.67;26.50;;;-1.00;99.90;;;;;;4879734;29;20469;-72
2021/03/08 02:30:58;;;;;;;28.47;25.53;;;-0.90;99.90;;;;;;4879154;29;20450;-71
2021/03/08 02:33:29;;;;;;;31.77;27.37;;;-0.80;99.90;;;;;;4879237;29;20452;-72
2021/03/08 02:36:00;;;;;;;28.53;25.63;;;-0.80;99.90;;;;;;4879276;29;20482;-72
2021/03/08 02:38:29;;;;;;;34.27;26.27;;;-0.70;99.90;;;;;;4879177;29;20458;-73
2021/03/08 02:41:02;;;;;;;30.63;25.83;;;-0.60;99.90;;;;;;4878908;29;20503;-72
2021/03/08 02:43:32;;;;;;;28.60;25.57;;;-0.60;99.90;;;;;;4879286;29;20452;-72
2021/03/08 02:46:04;;;;;;;29.40;26.33;;;-0.60;99.90;;;;;;4878955;29;20518;-72
2021/03/08 02:48:33;;;;;;;29.10;25.27;;;-0.70;99.90;;;;;;4879072;29;20967;-72
2021/03/08 02:51:03;;;;;;;29.43;26.30;;;-0.70;99.90;;;;;;4879314;29;20467;-72
2021/03/08 02:53:32;;;;;;;27.10;24.30;;;-0.70;99.90;;;;;;4879121;29;20463;-72
2021/03/08 02:56:01;;;;;;;32.33;26.80;;;-0.70;99.90;;;;;;4878949;29;20493;-73
2021/03/08 02:58:31;;;;;;;28.23;25.07;;;-0.80;99.90;;;;;;4879491;29;20801;-72
2021/03/08 03:00:59;;;;;;;29.57;24.10;;;-0.90;99.90;;;;;;4879211;29;20483;-72
2021/03/08 03:03:27;;;;;;;27.73;24.87;;;-0.90;99.90;;;;;;4878908;29;20460;-72
2021/03/08 03:05:56;;;;;;;27.77;25.00;;;-1.00;99.90;;;;;;4878602;29;20499;-72
2021/03/08 03:08:23;;;;;;;31.70;26.03;;;-1.20;99.90;;;;;;4878536;29;20464;-72
2021/03/08 03:10:50;;;;;;;30.10;26.37;;;-1.30;99.90;;;;;;4878978;29;20532;-72
2021/03/08 03:13:16;;;;;;;31.53;27.20;;;-1.30;99.90;;;;;;4878619;29;20452;-72
2021/03/08 03:15:43;;;;;;;28.23;25.03;;;-1.30;99.90;;;;;;4878976;29;20457;-72
2021/03/08 03:18:11;;;;;;;28.60;25.60;;;-1.40;99.90;;;;;;4878534;29;20482;-72
2021/03/08 03:20:39;;;;;;;32.83;25.80;;;-1.40;99.90;;;;;;4878659;29;20527;-72
2021/03/08 03:23:07;;;;;;;31.20;27.87;;;-1.30;99.90;;;;;;4878543;29;20522;-72
2021/03/08 03:25:33;;;;;;;30.10;27.13;;;-1.20;99.90;;;;;;4878481;29;20499;-73
2021/03/08 03:28:00;;;;;;;28.13;25.13;;;-1.20;99.90;;;;;;4878881;29;20516;-73
2021/03/08 03:30:30;;;;;;;29.17;25.97;;;-1.20;99.90;;;;;;4878823;29;20552;-72
2021/03/08 03:32:58;;;;;;;30.87;27.50;;;-1.30;99.90;;;;;;4878673;29;20463;-72
2021/03/08 03:35:27;;;;;;;30.90;27.03;;;-1.30;99.90;;;;;;4878277;29;20503;-71
2021/03/08 03:37:55;;;;;;;31.73;28.33;;;-1.30;99.90;;;;;;4878523;29;20456;-71
2021/03/08 03:40:22;;;;;;;32.10;28.80;;;-1.30;99.90;;;;;;4878113;29;20499;-71
2021/03/08 03:42:50;;;;;;;31.00;27.80;;;-1.40;99.90;;;;;;4878412;29;20515;-72
2021/03/08 03:45:18;;;;;;;30.10;27.00;;;-1.40;99.90;;;;;;4878325;29;21018;-71
2021/03/08 03:47:44;;;;;;;33.80;28.77;;;-1.50;99.90;;;;;;4878391;29;20465;-71
2021/03/08 03:50:14;;;;;;;32.77;27.40;;;-1.40;99.90;;;;;;4878055;29;20457;-71
2021/03/08 03:52:41;;;;;;;30.03;26.60;;;-1.40;99.90;;;;;;4878589;29;20460;-72
2021/03/08 03:55:10;;;;;;;29.87;26.27;;;-1.40;99.90;;;;;;4878166;29;21000;-72
2021/03/08 03:57:43;;;;;;;31.10;27.80;;;-1.40;99.90;;;;;;4878242;29;20470;-72
2021/03/08 04:00:11;;;;;;;31.67;28.20;;;-1.40;99.90;;;;;;4878028;29;20463;-71
2021/03/08 04:02:42;;;;;;;28.47;25.80;;;-1.50;99.90;;;;;;4877746;29;20491;-72
2021/03/08 04:05:15;;;;;;;31.37;27.53;;;-1.50;99.90;;;;;;4877953;29;20496;-72
2021/03/08 04:07:44;;;;;;;28.47;25.57;;;-1.50;99.90;;;;;;4878732;29;20468;-75
2021/03/08 04:10:12;;;;;;;28.43;25.43;;;-1.40;99.90;;;;;;4877973;29;20484;-73
2021/03/08 04:12:43;;;;;;;28.93;26.07;;;-1.40;99.90;;;;;;4878045;29;20510;-72
2021/03/08 04:15:10;;;;;;;31.03;27.10;;;-1.50;99.90;;;;;;4877814;29;20519;-72
2021/03/08 04:17:40;;;;;;;32.70;29.13;;;-1.60;99.90;;;;;;4877690;29;20468;-72
2021/03/08 04:20:10;;;;;;;30.27;26.40;;;-1.60;99.90;;;;;;4877823;29;20915;-72
2021/03/08 04:22:38;;;;;;;29.80;26.47;;;-1.60;99.90;;;;;;4877753;29;20452;-73
2021/03/08 04:25:08;;;;;;;34.10;29.77;;;-1.60;99.90;;;;;;4877733;29;20559;-72
2021/03/08 04:27:34;;;;;;;31.60;28.27;;;-1.60;99.90;;;;;;4877920;29;20524;-73
2021/03/08 04:30:02;;;;;;;29.53;26.07;;;-1.60;99.90;;;;;;4877440;29;20947;-73
2021/03/08 04:32:28;;;;;;;32.50;29.20;;;-1.70;99.90;;;;;;4877836;29;20464;-73
2021/03/08 04:34:55;;;;;;;31.63;28.23;;;-1.70;99.90;;;;;;4877689;29;20456;-72
2021/03/08 04:37:22;;;;;;;33.83;27.77;;;-1.70;99.90;;;;;;4877440;29;20478;-73
2021/03/08 04:39:50;;;;;;;34.05;30.45;;;-1.80;99.90;;;;;;4877530;29;20498;-72
2021/03/08 04:42:18;;;;;;;30.40;27.40;;;-1.90;99.90;;;;;;4877214;29;20207;-72
2021/03/08 04:44:46;;;;;;;34.80;29.40;;;-1.90;99.90;;;;;;4877004;29;20507;-72
2021/03/08 04:47:16;;;;;;;30.23;27.03;;;-1.90;99.90;;;;;;4877194;29;20980;-71
2021/03/08 04:49:43;;;;;;;32.23;27.27;;;-1.80;99.90;;;;;;4877403;29;20461;-72
2021/03/08 04:52:13;;;;;;;34.40;27.70;;;-1.80;99.90;;;;;;4876989;29;20604;-71
2021/03/08 04:54:42;;;;;;;30.67;25.93;;;-1.90;99.90;;;;;;4877330;29;20459;-71
2021/03/08 04:57:10;;;;;;;35.63;30.90;;;-1.90;99.90;;;;;;4876821;29;20474;-72
2021/03/08 04:59:38;;;;;;;36.13;30.00;;;-1.80;99.90;;;;;;4877014;29;20476;-73
2021/03/08 05:02:05;;;;;;;32.23;27.23;;;-1.70;99.90;;;;;;4876867;29;20459;-72
2021/03/08 05:04:32;;;;;;;30.17;27.00;;;-1.70;99.90;;;;;;4876579;29;20839;-72
2021/03/08 05:06:59;;;;;;;30.67;27.33;;;-1.70;99.90;;;;;;4876656;29;20463;-72
2021/03/08 05:09:26;;;;;;;37.23;29.00;;;-1.70;99.90;;;;;;4877015;29;20502;-72
2021/03/08 05:11:59;;;;;;;35.20;28.40;;;-1.60;99.90;;;;;;4876827;29;20467;-72
2021/03/08 05:14:28;;;;;;;31.43;27.90;;;-1.60;99.90;;;;;;4876981;29;20467;-73
2021/03/08 05:16:57;;;;;;;31.67;26.87;;;-1.60;99.90;;;;;;4876731;29;20467;-72
2021/03/08 05:19:24;;;;;;;30.87;27.47;;;-1.60;99.90;;;;;;4877333;29;20463;-72
2021/03/08 05:21:51;;;;;;;33.03;26.20;;;-1.70;99.90;;;;;;4877603;29;20496;-72
2021/03/08 05:24:18;;;;;;;31.50;25.63;;;-1.80;99.90;;;;;;4877382;29;20495;-72
2021/03/08 05:26:45;;;;;;;29.47;26.37;;;-1.90;99.90;;;;;;4876877;29;20452;-72
2021/03/08 05:29:12;;;;;;;29.97;25.80;;;-2.00;99.90;;;;;;4877055;29;20456;-72
2021/03/08 05:31:41;;;;;;;32.17;26.27;;;-2.10;99.90;;;;;;4876766;29;20470;-72
2021/03/08 05:34:10;;;;;;;33.60;29.83;;;-2.20;99.90;;;;;;4876867;29;20298;-72
2021/03/08 05:36:40;;;;;;;33.93;28.40;;;-2.30;99.90;;;;;;4876837;29;20475;-71
2021/03/08 05:39:07;;;;;;;29.80;26.60;;;-2.40;99.90;;;;;;4876748;29;20456;-72
2021/03/08 05:41:41;;;;;;;28.97;26.07;;;-2.40;99.90;;;;;;4876305;29;20498;-72
2021/03/08 05:44:08;;;;;;;31.63;27.73;;;-2.50;99.90;;;;;;4876725;29;20468;-72
2021/03/08 05:46:44;;;;;;;31.87;28.30;;;-2.40;99.90;;;;;;4876679;29;20793;-72
2021/03/08 05:49:30;;;;;;;35.43;29.73;;;-2.30;99.90;;;;;;4876648;29;20496;-73
2021/03/08 05:52:49;;;;;;;38.63;28.77;;;-2.40;99.90;;;;;;4877024;29;20468;-72
2021/03/08 05:55:42;;;;;;;33.58;28.35;;;-2.30;99.90;;;;;;4876461;29;20952;-72
2021/03/08 05:58:29;;;;;;;31.83;26.50;;;-2.30;99.90;;;;;;4876777;29;20210;-71
2021/03/08 06:01:03;;;;;;;33.70;28.23;;;-2.30;99.90;;;;;;4876831;29;20207;-72
2021/03/08 06:03:48;;;;;;;28.03;24.83;;;-2.40;99.90;;;;;;4876678;29;20458;-72
2021/03/08 06:07:01;;;;;;;31.87;28.47;;;-2.30;99.90;;;;;;4876574;29;20611;-72
2021/03/08 06:09:29;;;;;;;32.07;27.30;;;-2.40;99.90;;;;;;4876657;29;20460;-72
2021/03/08 06:12:00;;;;;;;32.10;29.00;;;-2.40;99.90;;;;;;4877794;29;20532;-71
2021/03/08 06:14:34;;;;;;;32.57;28.53;;;-2.20;99.90;;;;;;4879918;29;20554;-71
2021/03/08 06:17:01;;;;;;;35.27;28.47;;;-2.10;99.90;;;;;;4879983;29;20458;-71
2021/03/08 06:19:30;;;;;;;32.47;28.13;;;-2.00;99.90;;;;;;4879929;29;20455;-71
2021/03/08 06:21:59;;;;;;;38.97;30.43;;;-1.90;99.90;;;;;;4879285;29;20462;-71
2021/03/08 06:24:26;;;;;;;37.27;31.13;;;-1.70;99.90;;;;;;4879478;29;20514;-70
2021/03/08 06:26:55;;;;;;;42.30;31.57;;;-1.60;99.90;;;;;;4879492;29;20460;-71
2021/03/08 06:29:21;;;;;;;38.60;32.50;;;-1.50;99.90;;;;;;4879236;29;20563;-71
2021/03/08 06:31:48;;;;;;;43.83;34.17;;;-1.40;99.90;;;;;;4879366;29;20694;-71
2021/03/08 06:34:14;;;;;;;50.97;36.03;;;-1.10;99.90;;;;;;4879410;29;20468;-71
2021/03/08 06:36:42;;;;;;;52.97;37.00;;;-0.80;99.90;;;;;;4879152;29;20530;-73
2021/03/08 06:39:11;;;;;;;51.50;37.80;;;-0.40;99.90;;;;;;4879197;29;20460;-74
2021/03/08 06:41:37;;;;;;;45.13;33.50;;;0.00;99.90;;;;;;4879261;29;20498;-72
2021/03/08 06:44:04;;;;;;;40.23;30.93;;;0.40;99.90;;;;;;4879241;29;20460;-72
2021/03/08 06:46:31;;;;;;;35.73;29.80;;;0.90;99.90;;;;;;4879120;29;20472;-72
2021/03/08 06:48:57;;;;;;;33.47;29.57;;;1.40;99.90;;;;;;4879743;29;20471;-72
2021/03/08 06:51:23;;;;;;;33.70;28.30;;;2.00;99.90;;;;;;4879334;29;20469;-72
2021/03/08 06:53:49;;;;;;;29.90;26.70;;;2.30;99.90;;;;;;4879279;29;20460;-72
2021/03/08 06:56:18;;;;;;;30.23;27.07;;;2.60;99.90;;;;;;4879092;29;20950;-71
2021/03/08 06:58:45;;;;;;;29.37;26.37;;;3.20;99.90;;;;;;4878765;29;20801;-72
2021/03/08 07:01:12;;;;;;;26.10;23.67;;;3.50;99.90;;;;;;4878714;29;20465;-73
2021/03/08 07:03:39;;;;;;;27.67;24.73;;;4.00;99.90;;;;;;4878987;29;20458;-74
2021/03/08 07:06:16;;;;;;;30.33;27.43;;;4.40;99.90;;;;;;4878671;29;20690;-74
2021/03/08 07:08:43;;;;;;;28.33;25.67;;;4.80;99.90;;;;;;4878860;29;20472;-73
2021/03/08 07:11:19;;;;;;;28.50;26.00;;;4.90;99.90;;;;;;4878497;29;20804;-73
2021/03/08 07:13:46;;;;;;;27.43;24.87;;;5.00;99.90;;;;;;4878505;29;20459;-73
2021/03/08 07:16:13;;;;;;;29.33;26.53;;;5.40;99.90;;;;;;4878286;29;20860;-74
2021/03/08 07:18:40;;;;;;;27.07;24.57;;;5.90;99.50;;;;;;4878230;29;20523;-74
2021/03/08 07:21:15;;;;;;;27.10;24.37;;;6.20;98.40;;;;;;4878281;29;20539;-74
2021/03/08 07:23:42;;;;;;;29.40;26.30;;;6.40;97.90;;;;;;4877433;29;20455;-74
2021/03/08 07:26:10;;;;;;;26.70;24.40;;;6.30;98.00;;;;;;4878339;29;20509;-73
2021/03/08 07:28:38;;;;;;;27.33;24.63;;;6.20;96.90;;;;;;4878265;29;20475;-73
2021/03/08 07:31:04;;;;;;;26.17;23.87;;;6.30;97.20;;;;;;4878312;29;20451;-72
2021/03/08 07:33:32;;;;;;;29.03;26.30;;;6.20;96.80;;;;;;4878309;29;20957;-74
2021/03/08 07:35:59;;;;;;;26.40;24.00;;;5.50;98.00;;;;;;4878549;29;20479;-73
2021/03/08 07:38:30;;;;;;;27.00;24.37;;;5.80;98.00;;;;;;4878259;29;20463;-72
2021/03/08 07:41:10;;;;;;;28.73;25.83;;;5.90;98.80;;;;;;4878471;29;20491;-74
2021/03/08 07:43:38;;;;;;;27.47;24.77;;;6.50;97.10;;;;;;4878212;29;20569;-74
2021/03/08 07:46:04;;;;;;;26.73;24.47;;;7.30;96.50;;;;;;4878156;29;21073;-73
2021/03/08 07:48:30;;;;;;;26.03;23.73;;;8.10;94.60;;;;;;4878425;29;20986;-73
2021/03/08 07:51:04;;;;;;;28.43;25.87;;;8.40;92.80;;;;;;4878198;29;20456;-73
2021/03/08 07:53:57;;;;;;;29.30;26.73;;;8.10;93.10;;;;;;4877650;29;20466;-72
2021/03/08 07:56:24;;;;;;;26.70;24.40;;;8.20;92.20;;;;;;4877822;29;20466;-73
2021/03/08 07:58:53;;;;;;;25.80;23.70;;;8.20;92.90;;;;;;4877853;29;20452;-71
2021/03/08 08:01:20;;;;;;;25.97;23.27;;;8.30;91.80;;;;;;4878127;29;20491;-74
2021/03/08 08:03:46;;;;;;;26.17;24.07;;;8.80;91.50;;;;;;4878315;29;20457;-73
2021/03/08 08:06:13;;;;;;;28.33;25.97;;;8.90;90.20;;;;;;4878151;29;20498;-74
2021/03/08 08:08:45;;;;;;;28.00;25.70;;;8.80;90.80;;;;;;4878045;29;20459;-73
2021/03/08 08:11:12;;;;;;;26.13;23.80;;;9.00;90.20;;;;;;4878148;29;20452;-73
2021/03/08 08:13:42;;;;;;;25.97;23.73;;;9.20;87.50;;;;;;4878081;29;20475;-74
2021/03/08 08:16:10;;;;;;;24.20;22.30;;;9.40;88.00;;;;;;4881934;29;20485;-73
2021/03/08 08:18:39;;;;;;;26.67;24.47;;;9.30;85.50;;;;;;4882359;29;20479;-72
2021/03/08 08:21:06;;;;;;;27.13;24.87;;;9.40;87.00;;;;;;4878182;29;20803;-73
2021/03/08 08:23:36;;;;;;;26.40;23.73;;;9.80;86.20;;;;;;4877998;29;20828;-73
2021/03/08 08:26:06;;;;;;;26.03;23.93;;;10.50;83.70;;;;;;4877833;29;20859;-73
2021/03/08 08:28:32;;;;;;;26.67;24.33;;;10.80;80.30;;;;;;4877801;29;20511;-73
2021/03/08 08:30:59;;;;;;;27.23;24.97;;;11.20;79.20;;;;;;4877883;29;21118;-72
2021/03/08 08:33:34;;;;;;;27.70;25.13;;;11.10;77.60;;;;;;4877916;29;20468;-73
2021/03/08 08:36:25;;;;;;;26.33;24.10;;;11.10;77.30;;;;;;4877615;29;20482;-74
2021/03/08 08:39:14;;;;;;;27.27;24.97;;;11.20;76.00;;;;;;4859733;29;20472;-75
2021/03/08 08:41:41;;;;;;;23.83;22.13;;;11.90;76.20;;;;;;4877619;29;20492;-74
2021/03/08 08:44:38;;;;;;;24.77;22.87;;;12.40;73.90;;;;;;4877811;29;20448;-74
2021/03/08 08:47:24;;;;;;;25.90;23.93;;;12.80;71.20;;;;;;4877631;29;20448;-74
2021/03/08 08:49:53;;;;;;;26.40;24.33;;;13.00;68.10;;;;;;4877564;29;20515;-74
2021/03/08 08:52:48;;;;;;;26.07;23.83;;;11.10;71.90;;;;;;4877653;29;20463;-74
2021/03/08 08:55:15;;;;;;;25.87;24.00;;;11.60;72.20;;;;;;4877718;29;20456;-73
2021/03/08 08:58:14;;;;;;;25.73;23.50;;;11.90;69.60;;;;;;4877511;29;20459;-74
2021/03/08 09:00:41;;;;;;;23.87;22.17;;;12.70;70.40;;;;;;4877512;29;20456;-74
2021/03/08 09:03:16;;;;;;;24.40;22.50;;;12.70;67.00;;;;;;4877446;29;20463;-74
2021/03/08 09:05:44;;;;;;;24.00;22.30;;;12.80;67.20;;;;;;4877451;29;20531;-74
2021/03/08 09:08:28;;;;;;;23.13;21.43;;;13.30;65.60;;;;;;4877557;29;20516;-74
2021/03/08 09:10:55;;;;;;;25.43;23.37;;;13.30;64.80;;;;;;4877645;29;20456;-74
2021/03/08 09:13:23;;;;;;;25.20;23.23;;;13.10;63.30;;;;;;4877593;29;20519;-74
2021/03/08 09:15:49;;;;;;;25.17;23.37;;;13.70;63.40;;;;;;4877397;29;20567;-74
2021/03/08 09:18:31;;;;;;;26.27;24.43;;;14.20;61.80;;;;;;4877450;29;20827;-74
2021/03/08 09:21:21;;;;;;;24.47;22.87;;;13.60;62.30;;;;;;4877686;29;20456;-74
2021/03/08 09:23:47;;;;;;;23.07;21.47;;;13.10;61.90;;;;;;4877483;29;20468;-74
2021/03/08 09:26:14;;;;;;;24.33;22.60;;;13.40;61.80;;;;;;4877613;29;20523;-74
2021/03/08 09:28:50;;;;;;;24.20;22.40;;;13.70;60.60;;;;;;4877390;29;20463;-74
2021/03/08 09:31:21;;;;;;;24.70;23.00;;;13.60;61.50;;;;;;4877317;29;20456;-74
2021/03/08 09:33:47;;;;;;;23.50;22.00;;;13.70;60.70;;;;;;4877489;29;20456;-73
2021/03/08 09:36:15;;;;;;;24.40;22.40;;;13.40;60.40;;;;;;4877214;29;20472;-72
2021/03/08 09:38:41;;;;;;;24.50;22.73;;;14.30;59.30;;;;;;4877445;29;20479;-75
2021/03/08 09:41:07;;;;;;;25.50;23.60;;;14.50;57.80;;;;;;4877231;29;20858;-74
2021/03/08 09:43:35;;;;;;;24.20;22.60;;;14.20;59.30;;;;;;4877234;29;20461;-73
2021/03/08 09:46:03;;;;;;;24.27;22.67;;;14.30;58.20;;;;;;4877194;29;20860;-72
2021/03/08 09:48:31;;;;;;;24.47;22.77;;;15.00;57.50;;;;;;4881085;29;20460;-72
2021/03/08 09:51:09;;;;;;;23.50;21.90;;;15.80;55.60;;;;;;4881209;29;20486;-72
2021/03/08 09:53:38;;;;;;;23.23;21.73;;;16.30;54.10;;;;;;4880801;29;20459;-72
2021/03/08 09:56:08;;;;;;;25.20;23.37;;;16.10;53.60;;;;;;4881125;29;20531;-72
2021/03/08 09:58:35;;;;;;;24.40;22.70;;;16.60;52.80;;;;;;4880570;29;20459;-73
2021/03/08 10:01:12;;;;;;;24.73;23.00;;;17.10;51.60;;;;;;4880573;29;20460;-73
2021/03/08 10:03:38;;;;;;;25.03;22.93;;;17.10;50.90;;;;;;4880722;29;20820;-72
2021/03/08 10:06:05;;;;;;;23.23;21.60;;;17.20;50.60;;;;;;4880467;29;20494;-73
2021/03/08 10:08:31;;;;;;;24.77;22.80;;;17.20;49.70;;;;;;4880628;29;20492;-72
2021/03/08 10:10:59;;;;;;;24.53;23.03;;;17.80;49.80;;;;;;4880608;29;20462;-72
2021/03/08 10:13:26;;;;;;;25.40;23.70;;;16.90;49.60;;;;;;4880556;29;20470;-72
2021/03/08 10:15:54;;;;;;;23.53;21.90;;;17.20;50.00;;;;;;4880315;29;20452;-72
2021/03/08 10:18:22;;;;;;;23.30;21.73;;;17.70;48.70;;;;;;4880244;29;20482;-73
2021/03/08 10:20:52;;;;;;;23.33;21.80;;;17.60;48.10;;;;;;4880342;29;20599;-72
2021/03/08 10:23:26;;;;;;;23.50;21.80;;;17.80;48.30;;;;;;4880393;29;20564;-71
2021/03/08 10:25:53;;;;;;;22.40;20.90;;;16.70;48.10;;;;;;4880094;29;20518;-71
2021/03/08 10:28:20;;;;;;;24.30;22.70;;;16.50;49.30;;;;;;4880106;29;20460;-72
2021/03/08 10:30:48;;;;;;;25.27;23.57;;;16.20;49.20;;;;;;4880021;29;20460;-71
2021/03/08 10:33:18;;;;;;;22.47;20.97;;;16.40;49.70;;;;;;4880319;29;20480;-71
2021/03/08 10:35:46;;;;;;;25.70;24.00;;;16.40;49.60;;;;;;4880089;29;20483;-71
2021/03/08 10:38:14;;;;;;;22.80;21.30;;;17.00;49.00;;;;;;4880055;29;20458;-72
2021/03/08 10:40:41;;;;;;;21.97;20.57;;;16.20;47.80;;;;;;4879802;29;20499;-72
2021/03/08 10:43:09;;;;;;;21.47;19.50;;;15.70;48.80;;;;;;4879949;29;20959;-71
2021/03/08 10:45:37;;;;;;;21.60;20.30;;;16.70;47.30;;;;;;4879700;29;20551;-72
2021/03/08 10:48:11;;;;;;;22.93;21.47;;;16.90;47.50;;;;;;4879996;29;20460;-73
2021/03/08 10:50:42;;;;;;;21.40;20.17;;;16.60;46.70;;;;;;4879712;29;20586;-73
2021/03/08 10:53:08;;;;;;;20.33;19.03;;;16.40;46.80;;;;;;4879740;29;20827;-73
2021/03/08 10:55:36;;;;;;;21.77;20.27;;;17.00;46.00;;;;;;4879872;29;20452;-73
2021/03/08 10:58:02;;;;;;;22.10;20.50;;;17.50;45.30;;;;;;4879582;29;20530;-73
2021/03/08 11:00:30;;;;;;;22.13;20.70;;;17.10;45.30;;;;;;4879621;29;20968;-73
2021/03/08 11:02:59;;;;;;;20.97;19.47;;;15.90;46.10;;;;;;4879857;29;20467;-73
2021/03/08 11:05:25;;;;;;;23.17;21.67;;;15.40;47.00;;;;;;4879437;29;20583;-73
2021/03/08 11:07:52;;;;;;;21.40;19.83;;;15.40;47.30;;;;;;4879389;29;20449;-73
2021/03/08 11:10:32;;;;;;;22.27;20.77;;;14.90;47.80;;;;;;4879348;29;20488;-74
2021/03/08 11:13:00;;;;;;;22.30;20.90;;;15.10;48.40;;;;;;4879469;29;20943;-73
2021/03/08 11:15:26;;;;;;;22.40;20.63;;;16.00;48.50;;;;;;4879198;29;20463;-73
2021/03/08 11:17:53;;;;;;;23.13;21.43;;;16.70;47.20;;;;;;4880408;29;20807;-73
2021/03/08 11:20:22;;;;;;;21.40;19.80;;;16.80;45.70;;;;;;4882988;29;20460;-73
2021/03/08 11:22:53;;;;;;;22.03;20.43;;;15.80;46.20;;;;;;4879896;29;20567;-74
2021/03/08 11:25:34;;;;;;;23.03;21.43;;;15.80;46.80;;;;;;4879201;29;20947;-73
2021/03/08 11:28:02;;;;;;;23.60;21.90;;;16.60;47.20;;;;;;4879125;29;20464;-73
2021/03/08 11:30:29;;;;;;;22.23;20.77;;;17.00;45.50;;;;;;4879076;29;20464;-73
2021/03/08 11:32:56;;;;;;;22.97;21.27;;;17.10;45.00;;;;;;4879079;29;20460;-73
2021/03/08 11:35:26;;;;;;;22.63;21.03;;;16.70;45.20;;;;;;4878796;29;20983;-73
2021/03/08 11:37:55;;;;;;;21.50;20.10;;;16.30;44.90;;;;;;4878916;29;20464;-73
2021/03/08 11:40:23;;;;;;;22.60;21.03;;;15.80;46.00;;;;;;4878601;29;21014;-74
2021/03/08 11:42:49;;;;;;;22.17;20.73;;;15.70;46.30;;;;;;4878863;29;20466;-73
2021/03/08 11:45:17;;;;;;;22.13;20.53;;;14.80;47.00;;;;;;4878651;29;20520;-73
2021/03/08 11:47:43;;;;;;;22.03;20.63;;;15.40;47.10;;;;;;4879016;29;20483;-73
2021/03/08 11:50:11;;;;;;;22.77;21.37;;;15.60;46.00;;;;;;4878841;29;20471;-73
2021/03/08 11:52:38;;;;;;;23.40;21.80;;;15.40;47.00;;;;;;4878627;29;20460;-73
2021/03/08 11:55:05;;;;;;;21.60;20.07;;;15.50;47.20;;;;;;4878779;29;20456;-73
2021/03/08 11:57:31;;;;;;;22.30;20.80;;;16.00;47.40;;;;;;4878624;29;20455;-72
2021/03/08 11:59:58;;;;;;;23.57;21.80;;;16.30;46.80;;;;;;4878328;29;20467;-73
2021/03/08 12:02:24;;;;;;;23.23;21.77;;;16.60;46.00;;;;;;4878545;29;20452;-72
2021/03/08 12:04:50;;;;;;;24.70;22.80;;;17.30;46.20;;;;;;4878426;29;20875;-73
2021/03/08 12:07:16;;;;;;;23.60;22.00;;;17.50;44.90;;;;;;4878348;29;20464;-72
2021/03/08 12:09:43;;;;;;;22.13;20.73;;;16.80;43.60;;;;;;4877729;29;20558;-72
2021/03/08 12:12:10;;;;;;;22.00;20.60;;;16.50;44.60;;;;;;4877979;29;20471;-72
2021/03/08 12:14:37;;;;;;;21.60;20.10;;;17.30;44.50;;;;;;4876097;29;20460;-72
2021/03/08 12:17:03;;;;;;;22.40;21.00;;;18.00;42.70;;;;;;4876035;29;20465;-73
2021/03/08 12:19:29;;;;;;;21.77;20.37;;;17.40;43.60;;;;;;4877809;29;20483;-73
2021/03/08 12:21:56;;;;;;;20.60;19.30;;;17.90;42.50;;;;;;4877909;29;20872;-72
2021/03/08 12:24:22;;;;;;;22.00;20.27;;;16.60;40.40;;;;;;4877780;29;20461;-72
2021/03/08 12:26:49;;;;;;;21.43;20.03;;;16.60;40.60;;;;;;4877860;29;20846;-72
2021/03/08 12:29:15;;;;;;;20.20;19.00;;;16.80;40.80;;;;;;4877871;29;20462;-73
2021/03/08 12:31:41;;;;;;;21.00;19.60;;;17.70;40.70;;;;;;4877875;29;20527;-73
2021/03/08 12:34:08;;;;;;;21.50;20.10;;;18.00;40.10;;;;;;4877727;29;20554;-73
2021/03/08 12:36:34;;;;;;;22.63;21.10;;;18.00;41.20;;;;;;4877487;29;20468;-73
2021/03/08 12:39:00;;;;;;;22.73;21.33;;;18.90;40.70;;;;;;4877804;29;20951;-72
2021/03/08 12:41:26;;;;;;;22.73;21.33;;;18.80;39.90;;;;;;4877534;29;20488;-72